Time;durP1;ratioP1;P1;durP2;ratioP2;P2;SDS_P1;SDS_P2;PMS_P1;PMS_P2;Temp;Humidity;BMP_temperature;BMP_pressure;BME280_temperature;BME280_humidity;BME280_pressure;Samples;Min_cycle;Max_cycle;Signal;HPM_P1;HPM_P2
2022/07/21 00:02:08;;;;;;;7.93;5.68;;;22.60;55.70;;;;;;4980815;28;20078;-50
2022/07/21 00:04:36;;;;;;;11.35;5.85;;;22.70;55.80;;;;;;4986107;28;20534;-48
2022/07/21 00:07:03;;;;;;;10.90;6.03;;;22.70;55.90;;;;;;4982952;28;20057;-47
2022/07/21 00:09:31;;;;;;;7.68;5.60;;;22.70;56.20;;;;;;4984396;28;20499;-49
2022/07/21 00:11:58;;;;;;;22.63;7.28;;;22.70;56.20;;;;;;4984304;28;20061;-46
2022/07/21 00:14:27;;;;;;;18.73;7.82;;;22.70;56.60;;;;;;4984250;28;20054;-46
2022/07/21 00:16:54;;;;;;;11.27;6.32;;;22.70;56.80;;;;;;4981486;28;20061;-48
2022/07/21 00:19:22;;;;;;;12.10;7.50;;;22.70;56.60;;;;;;4984585;28;20055;-48
2022/07/21 00:21:49;;;;;;;17.38;7.13;;;22.70;56.90;;;;;;4981445;28;20047;-48
2022/07/21 00:24:17;;;;;;;20.02;6.45;;;22.70;57.20;;;;;;4984352;28;20053;-51
2022/07/21 00:26:45;;;;;;;8.43;5.22;;;22.60;57.10;;;;;;4981468;28;20061;-50
2022/07/21 00:29:12;;;;;;;9.90;5.47;;;22.60;57.10;;;;;;4983846;28;20060;-47
2022/07/21 00:31:41;;;;;;;11.65;5.55;;;22.60;57.30;;;;;;4981569;28;20065;-48
2022/07/21 00:34:09;;;;;;;11.27;5.65;;;22.60;57.40;;;;;;4984897;28;20418;-47
2022/07/21 00:36:36;;;;;;;7.43;5.22;;;22.60;57.40;;;;;;4979300;28;20057;-50
2022/07/21 00:39:04;;;;;;;9.63;5.32;;;22.60;57.50;;;;;;4984578;28;20058;-51
2022/07/21 00:41:31;;;;;;;12.43;5.53;;;22.60;57.60;;;;;;4984200;28;20490;-48
2022/07/21 00:43:58;;;;;;;16.38;5.88;;;22.60;57.70;;;;;;4984596;28;20065;-47
2022/07/21 00:46:26;;;;;;;8.82;5.85;;;22.70;57.70;;;;;;4981226;28;20057;-48
2022/07/21 00:48:55;;;;;;;7.30;6.05;;;22.70;57.70;;;;;;4984647;28;20058;-47
2022/07/21 00:51:22;;;;;;;8.27;5.80;;;22.70;57.80;;;;;;4983988;28;20062;-47
2022/07/21 00:53:50;;;;;;;8.40;5.70;;;22.70;57.70;;;;;;4982736;28;20707;-46
2022/07/21 00:56:18;;;;;;;10.32;6.47;;;22.70;57.60;;;;;;4981582;28;20061;-53
2022/07/21 00:58:46;;;;;;;7.78;6.10;;;22.70;57.70;;;;;;4983559;28;20427;-50
2022/07/21 01:01:13;;;;;;;8.73;6.28;;;22.80;57.70;;;;;;4982481;28;20061;-47
2022/07/21 01:03:40;;;;;;;8.13;5.15;;;22.80;57.80;;;;;;4983440;28;20402;-46
2022/07/21 01:06:09;;;;;;;12.93;7.45;;;22.80;57.90;;;;;;4980153;28;20054;-46
2022/07/21 01:08:37;;;;;;;8.25;5.55;;;22.80;58.00;;;;;;4983117;28;20062;-49
2022/07/21 01:11:04;;;;;;;10.13;6.07;;;22.80;57.80;;;;;;4981849;28;20050;-48
2022/07/21 01:13:32;;;;;;;10.35;6.72;;;22.80;57.80;;;;;;4981980;28;20049;-46
2022/07/21 01:16:00;;;;;;;8.02;6.03;;;22.90;57.90;;;;;;4980454;28;20050;-47
2022/07/21 01:18:28;;;;;;;8.43;6.05;;;22.80;57.80;;;;;;4982704;28;20090;-46
2022/07/21 01:20:56;;;;;;;9.18;5.85;;;22.90;57.90;;;;;;4982717;28;20168;-46
2022/07/21 01:23:25;;;;;;;18.95;6.28;;;22.80;57.80;;;;;;4983544;28;20054;-46
2022/07/21 01:25:52;;;;;;;10.18;6.32;;;22.80;57.80;;;;;;4981678;28;20482;-48
2022/07/21 01:28:20;;;;;;;19.75;8.13;;;22.90;57.80;;;;;;4975073;28;20054;-51
2022/07/21 01:30:47;;;;;;;9.75;6.97;;;22.80;57.70;;;;;;4980302;28;20062;-46
2022/07/21 01:33:15;;;;;;;8.68;6.50;;;22.90;57.70;;;;;;4983028;28;20058;-47
2022/07/21 01:35:44;;;;;;;8.40;6.82;;;22.80;57.70;;;;;;4982057;28;20510;-47
2022/07/21 01:43:43;;;;;;;8.13;6.03;;;22.90;58.20;;;;;;4988817;28;20442;-48
2022/07/21 01:46:12;;;;;;;7.65;6.20;;;22.80;57.90;;;;;;4980007;28;20053;-46
2022/07/21 01:48:43;;;;;;;10.18;6.28;;;22.80;58.00;;;;;;4983854;28;20050;-48
2022/07/21 01:51:10;;;;;;;10.00;6.35;;;22.90;58.10;;;;;;4978575;28;20061;-47
2022/07/21 01:53:39;;;;;;;8.52;6.05;;;22.90;58.00;;;;;;4982362;28;20506;-47
2022/07/21 01:56:08;;;;;;;9.05;5.78;;;22.80;58.10;;;;;;4981415;28;20070;-47
2022/07/21 01:58:36;;;;;;;9.02;6.22;;;22.80;58.20;;;;;;4977018;28;20069;-47
2022/07/21 02:01:04;;;;;;;10.13;6.78;;;22.80;58.20;;;;;;4980539;28;20065;-46
2022/07/21 02:03:31;;;;;;;7.63;6.20;;;22.80;58.20;;;;;;4980552;28;20061;-52
2022/07/21 02:06:02;;;;;;;9.40;6.32;;;22.80;58.20;;;;;;4981073;28;20051;-48
2022/07/21 02:08:29;;;;;;;7.35;5.63;;;22.80;58.30;;;;;;4982235;28;20494;-47
2022/07/21 02:10:57;;;;;;;10.55;6.25;;;22.80;58.20;;;;;;4983505;28;20054;-47
2022/07/21 02:13:26;;;;;;;8.98;5.53;;;22.80;58.20;;;;;;4982360;28;20499;-46
2022/07/21 02:15:54;;;;;;;6.60;5.47;;;22.80;58.30;;;;;;4981673;28;20112;-49
2022/07/21 02:18:21;;;;;;;7.68;5.80;;;22.80;58.30;;;;;;4980093;28;20509;-47
2022/07/21 02:20:50;;;;;;;8.43;5.80;;;22.80;58.20;;;;;;4984136;28;20434;-47
2022/07/21 02:23:18;;;;;;;7.75;5.63;;;22.80;58.20;;;;;;4982140;28;20395;-50
2022/07/21 02:25:46;;;;;;;7.50;5.38;;;22.80;58.30;;;;;;4982024;28;20061;-48
2022/07/21 02:28:13;;;;;;;7.60;5.15;;;22.80;58.30;;;;;;4980170;28;20073;-48
2022/07/21 02:30:43;;;;;;;6.22;5.00;;;22.80;58.30;;;;;;4982001;28;20058;-46
2022/07/21 02:33:10;;;;;;;10.85;6.70;;;22.80;58.40;;;;;;4982060;28;20051;-47
2022/07/21 02:35:38;;;;;;;8.98;5.90;;;22.80;58.30;;;;;;4981838;28;20069;-47
2022/07/21 02:38:05;;;;;;;9.02;6.35;;;22.80;58.30;;;;;;4979407;28;20050;-47
2022/07/21 02:40:33;;;;;;;11.48;6.80;;;22.70;58.20;;;;;;4981549;28;20058;-48
2022/07/21 02:43:00;;;;;;;8.55;6.30;;;22.70;58.20;;;;;;4979486;28;20065;-47
2022/07/21 02:45:28;;;;;;;9.98;5.90;;;22.60;58.20;;;;;;4978856;28;20435;-47
2022/07/21 02:47:59;;;;;;;12.60;7.10;;;22.60;58.30;;;;;;4979007;28;20061;-46
2022/07/21 02:50:28;;;;;;;7.10;6.03;;;22.60;58.50;;;;;;4971183;28;20069;-49
2022/07/21 02:52:56;;;;;;;7.88;5.47;;;22.60;58.60;;;;;;4981762;28;20089;-46
2022/07/21 02:55:24;;;;;;;6.60;5.75;;;22.60;58.60;;;;;;4980365;28;21759;-46
2022/07/21 02:58:04;;;;;;;7.80;5.60;;;22.50;58.70;;;;;;4976877;28;20058;-48
2022/07/21 03:00:32;;;;;;;7.22;5.50;;;22.50;59.00;;;;;;4980315;28;20050;-47
2022/07/21 03:03:00;;;;;;;7.53;6.13;;;22.60;58.90;;;;;;4981289;28;20054;-49
2022/07/21 03:05:28;;;;;;;7.38;5.60;;;22.60;59.00;;;;;;4978651;28;20061;-48
2022/07/21 03:07:55;;;;;;;9.75;6.38;;;22.60;58.90;;;;;;4980242;28;20054;-48
2022/07/21 03:10:23;;;;;;;8.73;6.38;;;22.50;58.90;;;;;;4982674;28;20051;-47
2022/07/21 03:12:51;;;;;;;7.60;6.10;;;22.60;59.00;;;;;;4981412;28;20054;-46
2022/07/21 03:15:18;;;;;;;8.13;6.43;;;22.60;59.00;;;;;;4977468;28;20058;-49
2022/07/21 03:17:46;;;;;;;9.50;6.28;;;22.60;59.10;;;;;;4981739;28;20062;-48
2022/07/21 03:20:15;;;;;;;10.75;5.85;;;22.60;59.00;;;;;;4981214;28;20058;-46
2022/07/21 03:22:43;;;;;;;8.68;5.95;;;22.60;59.10;;;;;;4982247;28;20054;-47
2022/07/21 03:25:12;;;;;;;10.13;5.60;;;22.60;59.00;;;;;;4981394;28;20062;-46
2022/07/21 03:27:40;;;;;;;7.38;5.53;;;22.60;59.00;;;;;;4980861;28;20058;-46
2022/07/21 03:30:09;;;;;;;6.20;5.53;;;22.50;58.90;;;;;;4981117;28;20069;-46
2022/07/21 03:32:37;;;;;;;7.47;6.22;;;22.60;58.90;;;;;;4982702;28;20601;-46
2022/07/21 03:35:05;;;;;;;7.65;5.93;;;22.60;58.90;;;;;;4981742;28;20054;-47
2022/07/21 03:37:40;;;;;;;8.10;6.60;;;22.50;58.80;;;;;;4982296;28;20058;-46
2022/07/21 03:40:09;;;;;;;8.60;7.22;;;22.50;58.80;;;;;;4982556;28;20391;-47
2022/07/21 03:42:37;;;;;;;6.95;5.65;;;22.50;58.70;;;;;;4980310;28;20054;-49
2022/07/21 03:45:05;;;;;;;8.27;5.95;;;22.50;58.70;;;;;;4982440;28;20070;-48
2022/07/21 03:47:32;;;;;;;7.22;5.47;;;22.50;58.80;;;;;;4980874;28;20046;-49
2022/07/21 03:50:00;;;;;;;9.07;5.82;;;22.50;58.80;;;;;;4982730;28;20065;-49
2022/07/21 03:52:27;;;;;;;7.10;5.80;;;22.50;58.90;;;;;;4981548;28;20050;-46
2022/07/21 03:55:07;;;;;;;6.45;5.47;;;22.50;59.00;;;;;;4973067;28;20065;-49
2022/07/21 03:57:37;;;;;;;7.50;5.40;;;22.50;59.10;;;;;;4978754;28;20053;-46
2022/07/21 04:00:07;;;;;;;8.98;5.72;;;22.50;59.10;;;;;;4982949;28;20054;-47
2022/07/21 04:02:34;;;;;;;6.53;5.00;;;22.50;59.10;;;;;;4982317;28;20073;-47
2022/07/21 04:05:02;;;;;;;7.80;4.97;;;22.50;59.10;;;;;;4982002;28;20085;-47
2022/07/21 04:07:29;;;;;;;7.18;5.30;;;22.50;59.00;;;;;;4982154;28;20411;-51
2022/07/21 04:09:58;;;;;;;8.52;6.07;;;22.50;59.00;;;;;;4983676;28;20054;-48
2022/07/21 04:12:27;;;;;;;9.57;6.25;;;22.50;59.10;;;;;;4980880;28;20498;-47
2022/07/21 04:14:55;;;;;;;7.03;5.65;;;22.40;59.00;;;;;;4980989;28;20051;-47
2022/07/21 04:17:22;;;;;;;8.57;5.63;;;22.50;58.90;;;;;;4976761;28;20051;-47
2022/07/21 04:19:51;;;;;;;6.45;5.05;;;22.40;58.80;;;;;;4981416;28;20406;-47
2022/07/21 04:22:19;;;;;;;7.20;4.90;;;22.40;58.70;;;;;;4984364;28;20082;-49
2022/07/21 04:24:47;;;;;;;7.78;4.90;;;22.40;58.70;;;;;;4982105;28;20061;-48
2022/07/21 04:27:15;;;;;;;6.53;5.10;;;22.40;58.70;;;;;;4973266;28;20066;-50
2022/07/21 04:29:44;;;;;;;6.90;5.20;;;22.40;58.80;;;;;;4982930;28;20059;-49
2022/07/21 04:32:12;;;;;;;7.18;5.55;;;22.30;58.70;;;;;;4984193;28;20053;-47
2022/07/21 04:34:39;;;;;;;10.07;6.38;;;22.30;58.70;;;;;;4985206;28;20069;-46
2022/07/21 04:37:07;;;;;;;10.57;6.45;;;22.30;58.80;;;;;;4982548;28;20490;-47
2022/07/21 04:39:34;;;;;;;7.50;5.65;;;22.30;58.70;;;;;;4984845;28;20054;-51
2022/07/21 04:42:02;;;;;;;6.70;5.53;;;22.30;58.80;;;;;;4984335;28;20054;-48
2022/07/21 04:44:33;;;;;;;8.43;5.60;;;22.30;58.80;;;;;;4981496;28;20054;-48
2022/07/21 04:47:04;;;;;;;7.03;5.38;;;22.20;58.80;;;;;;4983339;28;20406;-46
2022/07/21 04:49:34;;;;;;;7.15;5.50;;;22.20;58.80;;;;;;4984402;28;20058;-47
2022/07/21 04:52:02;;;;;;;7.45;5.32;;;22.20;58.80;;;;;;4983633;28;20058;-48
2022/07/21 04:54:29;;;;;;;12.20;8.43;;;22.20;58.90;;;;;;4982252;28;20428;-52
2022/07/21 04:56:56;;;;;;;9.07;5.63;;;22.20;59.10;;;;;;4983413;28;20058;-49
2022/07/21 04:59:24;;;;;;;7.38;5.57;;;22.20;59.20;;;;;;4982420;28;20061;-46
2022/07/21 05:01:56;;;;;;;6.43;4.97;;;22.20;59.40;;;;;;4983833;28;20402;-46
2022/07/21 05:04:24;;;;;;;7.75;4.88;;;22.20;59.60;;;;;;4984174;28;20939;-51
2022/07/21 05:06:51;;;;;;;7.47;4.82;;;22.20;59.60;;;;;;4982339;28;20061;-46
2022/07/21 05:09:19;;;;;;;6.47;4.53;;;22.20;59.60;;;;;;4984398;28;20061;-48
2022/07/21 05:11:46;;;;;;;6.07;4.50;;;22.30;59.70;;;;;;4977034;28;20503;-48
2022/07/21 05:14:14;;;;;;;7.78;5.05;;;22.30;59.80;;;;;;4977447;28;20061;-48
2022/07/21 05:16:42;;;;;;;7.20;4.32;;;22.30;59.90;;;;;;4982025;28;20062;-46
2022/07/21 05:19:10;;;;;;;7.15;5.22;;;22.30;60.00;;;;;;4981887;28;20062;-47
2022/07/21 05:21:38;;;;;;;6.95;4.93;;;22.30;60.20;;;;;;4981416;28;20073;-47
2022/07/21 05:24:06;;;;;;;6.28;5.07;;;22.30;60.20;;;;;;4979774;28;20050;-46
2022/07/21 05:26:34;;;;;;;8.57;4.55;;;22.40;60.30;;;;;;4975002;28;20054;-47
2022/07/21 05:29:01;;;;;;;7.82;5.47;;;22.40;60.30;;;;;;4979669;28;20483;-48
2022/07/21 05:31:29;;;;;;;7.53;5.63;;;22.40;60.60;;;;;;4979752;28;20062;-50
2022/07/21 05:33:56;;;;;;;6.75;5.40;;;22.40;60.60;;;;;;4980299;28;20138;-45
2022/07/21 05:36:25;;;;;;;10.15;5.57;;;22.50;60.80;;;;;;4981471;28;20077;-45
2022/07/21 05:38:52;;;;;;;9.13;6.00;;;22.50;61.10;;;;;;4979680;28;20410;-45
2022/07/21 05:41:21;;;;;;;9.40;5.63;;;22.50;61.30;;;;;;4980877;28;20058;-45
2022/07/21 05:43:48;;;;;;;9.27;5.25;;;22.50;61.20;;;;;;4976955;28;20073;-46
2022/07/21 05:46:16;;;;;;;8.77;5.47;;;22.60;61.20;;;;;;4976134;28;20530;-46
2022/07/21 05:48:44;;;;;;;10.68;6.43;;;22.60;61.00;;;;;;4983525;28;20059;-45
2022/07/21 05:51:14;;;;;;;8.80;5.72;;;22.60;60.90;;;;;;4981182;28;20108;-46
2022/07/21 05:53:43;;;;;;;8.05;5.40;;;22.70;60.70;;;;;;4980927;28;20058;-48
2022/07/21 05:56:10;;;;;;;8.25;6.22;;;22.70;60.50;;;;;;4977940;28;20509;-51
2022/07/21 05:58:38;;;;;;;6.75;5.20;;;22.70;60.40;;;;;;4981675;28;20054;-47
2022/07/21 06:01:09;;;;;;;7.93;5.70;;;22.80;60.40;;;;;;4975656;28;20525;-45
2022/07/21 06:03:37;;;;;;;5.88;5.10;;;22.70;60.10;;;;;;4979842;28;20438;-47
2022/07/21 06:06:05;;;;;;;10.75;5.63;;;22.70;60.00;;;;;;4980537;28;20057;-47
2022/07/21 06:08:32;;;;;;;7.65;5.25;;;22.80;60.00;;;;;;4981698;28;20050;-46
2022/07/21 06:11:01;;;;;;;10.35;5.50;;;22.80;59.90;;;;;;4983585;28;20090;-46
2022/07/21 06:13:28;;;;;;;8.23;5.95;;;22.80;60.00;;;;;;4980398;28;20058;-46
2022/07/21 06:15:56;;;;;;;9.43;6.07;;;22.70;59.90;;;;;;4977914;28;20054;-46
2022/07/21 06:18:23;;;;;;;7.10;5.70;;;22.80;59.80;;;;;;4978443;28;20057;-45
2022/07/21 06:20:51;;;;;;;10.27;6.53;;;22.80;59.90;;;;;;4979023;28;20418;-45
2022/07/21 06:23:19;;;;;;;8.00;5.72;;;22.70;59.90;;;;;;4979657;28;20089;-45
2022/07/21 06:25:46;;;;;;;8.65;5.97;;;22.70;59.80;;;;;;4980811;28;20426;-45
2022/07/21 06:28:15;;;;;;;8.57;6.05;;;22.70;59.80;;;;;;4975482;28;20050;-47
2022/07/21 06:30:43;;;;;;;7.18;5.90;;;22.70;59.90;;;;;;4978070;28;20081;-45
2022/07/21 06:33:11;;;;;;;10.07;5.80;;;22.70;59.90;;;;;;4982999;28;20062;-45
2022/07/21 06:35:38;;;;;;;9.07;6.03;;;22.70;59.90;;;;;;4977131;28;20050;-47
2022/07/21 06:38:06;;;;;;;9.32;6.30;;;22.70;60.00;;;;;;4981815;28;20050;-46
2022/07/21 06:40:33;;;;;;;8.88;6.65;;;22.60;60.00;;;;;;4981308;28;20482;-45
2022/07/21 06:43:01;;;;;;;9.43;5.78;;;22.60;60.30;;;;;;4978554;28;20100;-47
2022/07/21 06:45:30;;;;;;;6.72;5.32;;;22.60;60.10;;;;;;4975840;28;20057;-48
2022/07/21 06:48:03;;;;;;;8.43;6.05;;;22.60;60.20;;;;;;4981119;28;20486;-45
2022/07/21 06:50:31;;;;;;;7.78;5.50;;;22.60;60.40;;;;;;4978769;28;20067;-45
2022/07/21 06:53:02;;;;;;;8.15;5.97;;;22.60;60.40;;;;;;4980725;28;20054;-45
2022/07/21 06:55:29;;;;;;;7.07;5.40;;;22.60;60.60;;;;;;4979153;28;20058;-46
2022/07/21 06:57:57;;;;;;;9.30;6.00;;;22.60;60.60;;;;;;4976367;28;20050;-46
2022/07/21 07:00:24;;;;;;;6.85;5.78;;;22.60;60.80;;;;;;4974075;28;20077;-45
2022/07/21 07:02:53;;;;;;;8.23;5.70;;;22.60;61.00;;;;;;4975572;28;20050;-50
2022/07/21 07:05:21;;;;;;;8.57;5.63;;;22.60;61.40;;;;;;4978436;28;21220;-45
2022/07/21 07:07:49;;;;;;;7.22;4.82;;;22.60;61.40;;;;;;4977401;28;20058;-46
2022/07/21 07:10:16;;;;;;;9.02;5.80;;;22.60;61.50;;;;;;4982196;28;20138;-50
2022/07/21 07:12:43;;;;;;;7.68;4.88;;;22.70;61.80;;;;;;4974242;28;20050;-45
2022/07/21 07:15:11;;;;;;;6.57;4.70;;;22.70;61.90;;;;;;4977094;28;20054;-47
2022/07/21 07:17:39;;;;;;;8.43;4.63;;;22.70;61.90;;;;;;4970759;28;20061;-46
2022/07/21 07:20:14;;;;;;;6.78;4.88;;;22.80;61.80;;;;;;4979122;28;20058;-45
2022/07/21 07:22:42;;;;;;;5.38;4.47;;;22.80;62.00;;;;;;4981860;28;20062;-45
2022/07/21 07:25:16;;;;;;;6.40;4.63;;;22.80;62.00;;;;;;4981776;28;20051;-45
2022/07/21 07:27:49;;;;;;;6.57;4.60;;;22.90;62.60;;;;;;4974644;28;20499;-45
2022/07/21 07:30:18;;;;;;;6.53;4.88;;;23.00;62.10;;;;;;4976530;28;20065;-45
2022/07/21 07:32:46;;;;;;;6.28;4.40;;;23.00;61.80;;;;;;4980378;28;20061;-45
2022/07/21 07:35:17;;;;;;;7.47;4.68;;;23.00;62.20;;;;;;4977349;28;20055;-45
2022/07/21 07:37:46;;;;;;;7.55;4.90;;;23.10;62.70;;;;;;4974076;28;20069;-46
2022/07/21 07:40:16;;;;;;;10.23;5.32;;;23.10;62.70;;;;;;4983957;28;20070;-46
2022/07/21 07:42:44;;;;;;;6.35;5.25;;;23.20;62.60;;;;;;4980588;28;20058;-49
2022/07/21 07:45:14;;;;;;;7.72;5.68;;;23.20;62.40;;;;;;4975979;28;20065;-44
2022/07/21 07:47:42;;;;;;;7.55;5.70;;;23.30;62.40;;;;;;4981776;28;20061;-47
2022/07/21 07:50:18;;;;;;;8.82;5.70;;;23.30;62.00;;;;;;4981974;28;20490;-46
2022/07/21 07:52:46;;;;;;;7.18;5.80;;;23.30;61.80;;;;;;4985037;28;20061;-45
2022/07/21 07:55:14;;;;;;;11.68;5.90;;;23.40;61.60;;;;;;4983986;28;20050;-45
2022/07/21 07:57:43;;;;;;;7.57;6.38;;;23.40;61.80;;;;;;4978841;28;20058;-45
2022/07/21 08:00:13;;;;;;;6.97;5.43;;;23.40;61.80;;;;;;4980878;28;20057;-47
2022/07/21 08:02:40;;;;;;;9.80;6.10;;;23.50;61.80;;;;;;4982549;28;20495;-45
2022/07/21 08:05:11;;;;;;;7.75;6.03;;;23.50;61.60;;;;;;4985422;28;20065;-47
2022/07/21 08:07:40;;;;;;;7.32;5.68;;;23.50;61.70;;;;;;4981205;28;20069;-46
2022/07/21 08:10:09;;;;;;;8.00;6.22;;;23.60;61.60;;;;;;4981903;28;20054;-47
2022/07/21 08:12:37;;;;;;;8.43;5.43;;;23.60;62.30;;;;;;4984512;28;20050;-46
2022/07/21 08:15:05;;;;;;;6.45;5.22;;;23.60;61.40;;;;;;4985341;28;20073;-49
2022/07/21 08:17:33;;;;;;;9.32;6.00;;;23.60;60.90;;;;;;4977902;28;20069;-46
2022/07/21 08:20:01;;;;;;;5.72;5.13;;;23.70;61.00;;;;;;4985132;28;20061;-47
2022/07/21 08:22:31;;;;;;;6.32;5.20;;;23.70;61.00;;;;;;4981913;28;20763;-46
2022/07/21 08:25:00;;;;;;;5.95;5.20;;;23.70;60.90;;;;;;4985183;28;20069;-46
2022/07/21 08:27:27;;;;;;;7.43;5.20;;;23.70;60.70;;;;;;4980901;28;20058;-47
2022/07/21 08:29:55;;;;;;;9.90;5.60;;;23.80;61.30;;;;;;4979717;28;20046;-45
2022/07/21 08:32:25;;;;;;;5.65;5.10;;;23.80;61.00;;;;;;4981823;28;20065;-45
2022/07/21 08:34:52;;;;;;;6.65;4.90;;;23.90;60.20;;;;;;4980763;28;20046;-46
2022/07/21 08:37:20;;;;;;;7.10;4.70;;;23.90;59.90;;;;;;4977730;28;20046;-48
2022/07/21 08:39:48;;;;;;;6.07;5.20;;;23.90;59.60;;;;;;4983246;28;20054;-45
2022/07/21 08:42:17;;;;;;;9.15;5.78;;;24.00;59.50;;;;;;4980641;28;20058;-45
2022/07/21 08:44:45;;;;;;;6.63;5.32;;;24.00;59.50;;;;;;4983402;28;20054;-46
2022/07/21 08:47:13;;;;;;;6.78;5.60;;;24.00;59.60;;;;;;4980255;28;20054;-47
2022/07/21 08:49:43;;;;;;;7.63;5.35;;;24.00;59.40;;;;;;4984700;28;20418;-49
2022/07/21 08:52:12;;;;;;;6.53;4.72;;;24.00;60.00;;;;;;4978490;28;20422;-48
2022/07/21 08:54:44;;;;;;;6.20;4.50;;;24.00;59.40;;;;;;4979587;28;20050;-47
2022/07/21 08:57:14;;;;;;;6.68;4.80;;;24.10;59.30;;;;;;4981283;28;20494;-48
2022/07/21 08:59:45;;;;;;;6.80;4.50;;;24.10;59.60;;;;;;4980139;28;20050;-45
2022/07/21 09:02:28;;;;;;;10.68;4.80;;;24.10;59.10;;;;;;4981092;28;20512;-49
2022/07/21 09:04:57;;;;;;;7.40;4.30;;;24.20;58.80;;;;;;4983254;28;20062;-45
2022/07/21 09:07:26;;;;;;;6.03;4.03;;;24.20;58.70;;;;;;4978932;28;20608;-47
2022/07/21 09:10:01;;;;;;;4.90;3.35;;;24.20;58.50;;;;;;4983502;28;20058;-48
2022/07/21 09:12:31;;;;;;;6.03;3.65;;;24.30;58.00;;;;;;4981763;28;20058;-48
2022/07/21 09:15:18;;;;;;;4.93;3.35;;;24.40;58.00;;;;;;4976935;28;20058;-46
2022/07/21 09:17:47;;;;;;;7.20;3.38;;;24.50;57.70;;;;;;4981155;28;20379;-46
2022/07/21 09:20:27;;;;;;;6.35;3.08;;;24.50;56.90;;;;;;4982438;28;20065;-50
2022/07/21 09:23:13;;;;;;;5.40;2.90;;;24.50;56.20;;;;;;4982165;28;20053;-46
2022/07/21 09:25:44;;;;;;;4.43;2.97;;;24.50;56.40;;;;;;4982115;28;20054;-48
2022/07/21 09:28:20;;;;;;;4.95;3.13;;;24.60;56.10;;;;;;4981210;28;20058;-46
2022/07/21 09:31:07;;;;;;;4.82;3.35;;;24.60;55.70;;;;;;4980689;28;20065;-49
2022/07/21 09:33:41;;;;;;;6.45;3.13;;;24.60;55.10;;;;;;4976520;28;20067;-47
2022/07/21 09:36:15;;;;;;;4.57;2.80;;;24.70;54.90;;;;;;4977279;28;20058;-49
2022/07/21 09:38:52;;;;;;;8.00;3.30;;;24.60;54.70;;;;;;4980677;28;20434;-48
2022/07/21 09:41:22;;;;;;;4.32;3.30;;;24.70;55.00;;;;;;4981831;28;20054;-47
2022/07/21 09:43:54;;;;;;;4.55;3.00;;;24.70;55.20;;;;;;4978033;28;20052;-50
2022/07/21 09:46:40;;;;;;;5.00;3.13;;;24.70;55.30;;;;;;4975984;28;20051;-46
2022/07/21 09:49:11;;;;;;;7.63;3.42;;;24.70;55.80;;;;;;4985536;28;20070;-52
2022/07/21 09:51:51;;;;;;;6.65;3.15;;;24.80;55.10;;;;;;4981754;28;20069;-47
2022/07/21 09:54:29;;;;;;;4.88;3.03;;;24.80;54.50;;;;;;4988131;28;20062;-46
2022/07/21 09:57:05;;;;;;;4.07;2.80;;;24.90;54.50;;;;;;4986377;28;20126;-50
2022/07/21 09:59:34;;;;;;;5.18;2.80;;;24.90;54.20;;;;;;4985124;28;20047;-51
2022/07/21 10:02:05;;;;;;;5.75;2.70;;;24.90;54.20;;;;;;4978579;28;20066;-48
2022/07/21 10:04:39;;;;;;;6.03;3.40;;;24.90;53.70;;;;;;4981159;28;20050;-49
2022/07/21 10:07:07;;;;;;;4.60;2.72;;;25.00;53.20;;;;;;4976037;28;20065;-46
2022/07/21 10:09:35;;;;;;;3.47;2.75;;;25.00;53.40;;;;;;4983292;28;20348;-46
2022/07/21 10:12:03;;;;;;;3.78;2.80;;;25.00;53.30;;;;;;4975953;28;20512;-46
2022/07/21 10:14:33;;;;;;;6.20;3.40;;;25.00;53.40;;;;;;4980718;28;20046;-47
2022/07/21 10:17:02;;;;;;;16.65;9.68;;;25.00;53.10;;;;;;4978806;28;20065;-47
2022/07/21 10:19:41;;;;;;;5.80;3.67;;;25.10;52.90;;;;;;4981159;28;20406;-47
2022/07/21 10:22:20;;;;;;;5.97;3.90;;;25.10;52.60;;;;;;4976797;28;20060;-47
2022/07/21 10:24:48;;;;;;;5.18;3.47;;;25.10;53.00;;;;;;4977332;28;20057;-54
2022/07/21 10:27:17;;;;;;;5.90;3.55;;;25.20;53.20;;;;;;4977571;28;20058;-46
2022/07/21 10:30:00;;;;;;;4.15;2.90;;;25.30;52.60;;;;;;4980905;28;20050;-49
2022/07/21 10:32:30;;;;;;;4.90;3.00;;;25.30;52.30;;;;;;4981208;28;20058;-47
2022/07/21 10:35:04;;;;;;;7.05;3.42;;;25.40;52.00;;;;;;4974668;28;20054;-52
2022/07/21 10:37:46;;;;;;;3.63;2.97;;;25.40;51.60;;;;;;4977932;28;20054;-48
2022/07/21 10:40:35;;;;;;;5.20;3.38;;;25.50;51.70;;;;;;4981660;28;20070;-49
2022/07/21 10:43:41;;;;;;;4.35;2.95;;;25.50;51.30;;;;;;4977451;28;20046;-48
2022/07/21 10:46:34;;;;;;;4.97;3.38;;;25.60;51.10;;;;;;4976303;28;20057;-48
2022/07/21 10:49:02;;;;;;;6.60;3.38;;;25.70;51.20;;;;;;4969327;28;20515;-47
2022/07/21 10:51:32;;;;;;;8.23;3.35;;;25.70;50.70;;;;;;4981702;28;20208;-46
2022/07/21 10:54:24;;;;;;;6.38;3.20;;;25.80;50.10;;;;;;4977049;28;20054;-46
2022/07/21 10:57:26;;;;;;;3.17;2.88;;;25.80;49.50;;;;;;4977297;28;20053;-46
2022/07/21 11:00:22;;;;;;;4.25;2.90;;;25.90;49.40;;;;;;4980209;28;20054;-48
2022/07/21 11:02:53;;;;;;;4.65;2.50;;;26.00;48.90;;;;;;4975393;28;20062;-46
2022/07/21 11:05:21;;;;;;;4.40;2.78;;;26.00;48.30;;;;;;4978525;28;20057;-52
2022/07/21 11:08:19;;;;;;;4.80;3.17;;;26.00;48.50;;;;;;4981829;28;20054;-48
2022/07/21 11:10:49;;;;;;;5.75;3.40;;;26.00;48.50;;;;;;4981762;28;20050;-46
2022/07/21 11:13:17;;;;;;;5.55;3.25;;;26.10;48.30;;;;;;4981772;28;20050;-48
2022/07/21 11:15:47;;;;;;;6.97;3.00;;;26.10;48.30;;;;;;4985135;28;20061;-48
2022/07/21 11:18:17;;;;;;;4.60;3.25;;;26.10;47.90;;;;;;4986058;28;20065;-46
2022/07/21 11:20:58;;;;;;;4.60;3.17;;;26.10;47.60;;;;;;4987383;28;20058;-46
2022/07/21 11:23:37;;;;;;;4.15;3.10;;;26.10;47.80;;;;;;4985344;28;20058;-46
2022/07/21 11:26:05;;;;;;;4.35;3.40;;;26.20;47.50;;;;;;4985336;28;20498;-46
2022/07/21 11:28:33;;;;;;;6.15;2.90;;;26.20;47.70;;;;;;4984931;28;20080;-48
2022/07/21 11:31:18;;;;;;;6.05;3.58;;;26.20;47.60;;;;;;4986832;28;20050;-47
2022/07/21 11:33:47;;;;;;;5.60;3.65;;;26.20;47.80;;;;;;4986118;28;20054;-48
2022/07/21 11:36:28;;;;;;;5.38;3.22;;;26.20;47.70;;;;;;4984690;28;20058;-47
2022/07/21 11:39:06;;;;;;;5.85;3.58;;;26.20;47.40;;;;;;4985054;28;20054;-56
2022/07/21 11:41:35;;;;;;;4.32;3.40;;;26.20;47.10;;;;;;4986753;28;20058;-47
2022/07/21 11:44:03;;;;;;;5.65;3.17;;;26.30;47.40;;;;;;4982746;28;20065;-49
2022/07/21 11:46:46;;;;;;;4.85;3.00;;;26.20;47.40;;;;;;4982582;28;20594;-47
2022/07/21 11:49:13;;;;;;;6.07;4.03;;;26.20;47.80;;;;;;4986942;28;20457;-48
2022/07/21 11:51:47;;;;;;;4.28;3.20;;;26.30;48.40;;;;;;4986199;28;20050;-48
2022/07/21 11:54:24;;;;;;;6.38;3.70;;;26.30;47.50;;;;;;4985222;28;20054;-46
2022/07/21 11:56:52;;;;;;;5.80;3.42;;;26.30;47.20;;;;;;4985286;28;20391;-47
2022/07/21 11:59:20;;;;;;;6.25;4.07;;;26.30;46.90;;;;;;4985068;28;20058;-46
2022/07/21 12:01:53;;;;;;;5.38;4.15;;;26.30;47.00;;;;;;4984652;28;20058;-48
2022/07/21 12:04:38;;;;;;;4.88;3.55;;;26.30;46.20;;;;;;4982746;28;20429;-48
2022/07/21 12:07:11;;;;;;;7.53;3.72;;;26.30;47.00;;;;;;4983488;28;20070;-48
2022/07/21 12:09:41;;;;;;;6.55;3.78;;;26.30;46.90;;;;;;4985790;28;20062;-46
2022/07/21 12:12:09;;;;;;;5.20;3.90;;;26.20;46.40;;;;;;4984004;28;20054;-46
2022/07/21 12:14:44;;;;;;;8.10;3.78;;;26.20;46.40;;;;;;4983963;28;20062;-46
2022/07/21 12:17:12;;;;;;;8.10;4.20;;;26.20;46.30;;;;;;4985121;28;20058;-46
2022/07/21 12:19:40;;;;;;;7.38;4.22;;;26.10;46.70;;;;;;4983244;28;20065;-53
2022/07/21 12:22:08;;;;;;;7.68;4.53;;;26.00;47.20;;;;;;4983983;28;20058;-51
2022/07/21 12:24:55;;;;;;;6.18;4.40;;;25.90;47.80;;;;;;4983729;28;20498;-45
2022/07/21 12:27:22;;;;;;;8.98;5.25;;;25.70;49.40;;;;;;4980320;28;20054;-45
2022/07/21 12:29:50;;;;;;;9.95;5.70;;;25.60;50.00;;;;;;4983443;28;20426;-59
2022/07/21 12:32:47;;;;;;;10.20;6.93;;;25.40;50.60;;;;;;4985126;28;20051;-47
2022/07/21 12:35:28;;;;;;;7.93;5.63;;;25.10;51.10;;;;;;4985756;28;20522;-48
2022/07/21 12:38:01;;;;;;;8.18;6.03;;;24.80;52.00;;;;;;4984185;28;20058;-47
2022/07/21 12:40:32;;;;;;;11.20;6.30;;;24.60;52.60;;;;;;4983861;28;20070;-47
2022/07/21 12:43:18;;;;;;;13.18;7.10;;;24.40;53.30;;;;;;4982011;28;20058;-49
2022/07/21 12:45:54;;;;;;;9.23;6.30;;;24.20;54.00;;;;;;4981225;28;20542;-46
2022/07/21 12:48:23;;;;;;;10.15;6.57;;;24.10;54.50;;;;;;4984734;28;20053;-48
2022/07/21 12:51:09;;;;;;;11.13;5.90;;;23.90;54.60;;;;;;4985436;28;20043;-45
2022/07/21 12:53:38;;;;;;;11.75;6.22;;;23.70;55.20;;;;;;4983582;28;20503;-46
2022/07/21 12:56:07;;;;;;;9.38;5.68;;;23.60;55.40;;;;;;4983996;28;20071;-46
2022/07/21 12:58:36;;;;;;;10.18;5.70;;;23.50;55.90;;;;;;4984134;28;20521;-47
2022/07/21 13:01:04;;;;;;;6.68;5.75;;;23.50;56.20;;;;;;4985114;28;20061;-46
2022/07/21 13:03:33;;;;;;;7.20;5.53;;;23.40;56.40;;;;;;4982027;28;20060;-46
2022/07/21 13:06:02;;;;;;;7.47;5.40;;;23.40;57.20;;;;;;4982778;28;20058;-48
2022/07/21 13:08:30;;;;;;;7.38;5.65;;;23.40;56.90;;;;;;4994632;28;20053;-46